Time;durP1;ratioP1;P1;durP2;ratioP2;P2;SDS_P1;SDS_P2;PMS_P1;PMS_P2;Temp;Humidity;BMP_temperature;BMP_pressure;BME280_temperature;BME280_humidity;BME280_pressure;Samples;Min_cycle;Max_cycle;Signal;HPM_P1;HPM_P2
2023/03/31 00:00:17;;;;;;;2.37;0.70;;;12.40;99.90;;;12.54;nan;99904.50;4993852;28;20625;-67
2023/03/31 00:02:44;;;;;;;1.00;0.77;;;12.30;99.90;;;12.51;nan;99899.53;4996912;28;20636;-66
2023/03/31 00:05:16;;;;;;;0.30;0.30;;;12.30;99.90;;;12.46;nan;99897.34;5013329;28;20609;-66
2023/03/31 00:07:44;;;;;;;1.90;0.80;;;12.30;99.90;;;12.48;nan;99894.59;5008109;28;21180;-66
2023/03/31 00:10:12;;;;;;;0.40;0.40;;;12.30;99.90;;;12.46;nan;99892.94;5012069;28;20656;-68
2023/03/31 00:12:44;;;;;;;11.67;1.20;;;12.20;99.90;;;12.46;nan;99887.72;5012261;28;20966;-66
2023/03/31 00:15:12;;;;;;;0.60;0.60;;;12.30;99.90;;;12.51;nan;99879.44;5012541;28;20610;-66
2023/03/31 00:17:39;;;;;;;2.00;0.80;;;12.30;99.90;;;12.52;nan;99882.88;5013324;28;20675;-66
2023/03/31 00:20:11;;;;;;;0.60;0.60;;;12.30;99.90;;;12.55;nan;99877.34;5012043;28;21179;-66
2023/03/31 00:22:41;;;;;;;1.27;0.60;;;12.40;99.90;;;12.53;nan;99876.69;5009618;28;20629;-68
2023/03/31 00:25:11;;;;;;;1.87;0.87;;;12.30;99.90;;;12.56;nan;99872.00;5011648;28;20637;-67
2023/03/31 00:27:44;;;;;;;3.33;0.80;;;12.30;99.90;;;12.55;nan;99867.72;5010027;28;21229;-66
2023/03/31 00:30:15;;;;;;;0.30;0.30;;;12.30;99.90;;;12.54;nan;99862.63;5026831;28;20664;-66
2023/03/31 00:32:41;;;;;;;0.40;0.40;;;12.30;99.90;;;12.57;nan;99851.88;5027455;28;21001;-66
2023/03/31 00:35:09;;;;;;;0.70;0.70;;;12.30;99.90;;;12.56;nan;99852.84;5005519;28;20651;-66
2023/03/31 00:37:36;;;;;;;0.70;0.50;;;12.30;99.90;;;12.54;nan;99841.72;5012780;28;20627;-66
2023/03/31 00:40:10;;;;;;;1.17;0.60;;;12.30;99.90;;;12.55;nan;99838.09;5011580;28;20637;-66
2023/03/31 00:42:42;;;;;;;0.80;0.43;;;12.30;99.90;;;12.53;nan;99827.78;5011014;28;20645;-66
2023/03/31 00:45:15;;;;;;;1.03;0.80;;;12.30;99.90;;;12.59;nan;99836.84;5011179;28;20669;-67
2023/03/31 00:48:02;;;;;;;0.30;0.30;;;12.40;99.90;;;12.64;nan;99834.66;5009945;28;20644;-66
2023/03/31 00:50:40;;;;;;;0.60;0.60;;;12.40;99.90;;;12.66;nan;99824.84;5008688;28;20642;-66
2023/03/31 00:53:16;;;;;;;2.80;0.77;;;12.40;99.90;;;12.68;nan;99822.94;5010396;28;20640;-66
2023/03/31 00:55:54;;;;;;;0.60;0.60;;;12.50;99.90;;;12.68;nan;99817.69;5010219;28;21018;-66
2023/03/31 00:58:27;;;;;;;2.37;0.87;;;12.50;99.90;;;12.68;nan;99823.75;5008068;28;20653;-67
2023/03/31 01:00:58;;;;;;;1.73;0.90;;;12.50;99.90;;;12.69;nan;99817.53;5009333;28;20637;-66
2023/03/31 01:03:25;;;;;;;3.07;1.17;;;12.50;99.90;;;12.75;nan;99818.78;5025202;28;21242;-66
2023/03/31 01:05:57;;;;;;;0.40;0.40;;;12.50;99.90;;;12.70;nan;99811.34;5010124;28;20637;-66
2023/03/31 01:08:26;;;;;;;0.50;0.50;;;12.50;99.90;;;12.72;nan;99803.34;5010784;28;20653;-66
2023/03/31 01:10:59;;;;;;;0.83;0.60;;;12.50;99.90;;;12.72;nan;99803.34;5025365;28;20645;-66
2023/03/31 01:13:29;;;;;;;0.60;0.60;;;12.50;99.90;;;12.73;nan;99794.53;5025789;28;20643;-66
2023/03/31 01:15:57;;;;;;;1.50;0.73;;;12.50;99.90;;;12.73;nan;99778.84;5011111;28;20626;-66
2023/03/31 01:18:24;;;;;;;0.80;0.40;;;12.50;99.90;;;12.74;nan;99781.31;5006456;28;20715;-66
2023/03/31 01:21:22;;;;;;;1.33;1.07;;;12.50;99.90;;;12.80;nan;99782.53;5008908;28;20707;-67
2023/03/31 01:24:36;;;;;;;0.80;0.63;;;12.50;99.90;;;12.87;nan;99781.78;5002071;28;20724;-66
2023/03/31 01:27:15;;;;;;;1.43;0.80;;;12.60;99.90;;;12.92;nan;99776.97;4990664;28;20676;-66
2023/03/31 01:30:03;;;;;;;0.90;0.70;;;12.70;99.90;;;12.94;nan;99769.78;4994203;28;21153;-66
2023/03/31 01:33:41;;;;;;;1.23;0.90;;;12.70;99.90;;;12.98;nan;99770.31;5012245;28;20625;-66
2023/03/31 01:36:45;;;;;;;0.83;0.63;;;12.80;99.90;;;13.03;nan;99768.09;5008009;28;20649;-66
2023/03/31 01:40:09;;;;;;;1.03;0.73;;;12.80;99.90;;;13.05;nan;99761.72;4986863;28;20665;-65
2023/03/31 01:42:54;;;;;;;0.80;0.60;;;12.80;99.90;;;13.06;nan;99766.00;5010255;28;20633;-66
2023/03/31 01:45:52;;;;;;;1.77;0.93;;;12.80;99.90;;;13.09;nan;99755.25;5026470;28;20722;-65
2023/03/31 01:48:40;;;;;;;1.50;0.60;;;12.80;99.90;;;13.11;nan;99749.88;5009272;28;20652;-66
2023/03/31 01:51:48;;;;;;;1.27;1.00;;;12.90;99.90;;;13.18;nan;99740.47;5011308;28;20629;-66
2023/03/31 01:54:38;;;;;;;2.63;1.20;;;12.90;99.90;;;13.18;nan;99730.78;5006865;28;20641;-66
2023/03/31 01:57:22;;;;;;;4.17;1.00;;;13.00;99.90;;;13.19;nan;99729.81;5008697;28;20641;-66
2023/03/31 02:00:03;;;;;;;2.60;1.10;;;13.00;99.90;;;13.26;nan;99723.97;5008777;28;21097;-66
2023/03/31 02:02:41;;;;;;;4.80;1.37;;;13.00;99.90;;;13.31;nan;99717.31;5012010;28;20625;-66
2023/03/31 02:05:35;;;;;;;2.60;1.30;;;13.10;99.90;;;13.32;nan;99708.50;5009650;28;20656;-66
2023/03/31 02:08:09;;;;;;;1.90;0.97;;;13.10;99.90;;;13.30;nan;99710.44;4965927;28;20649;-65
2023/03/31 02:10:40;;;;;;;3.50;1.20;;;13.10;99.90;;;13.31;nan;99708.66;5022073;28;20633;-66
2023/03/31 02:13:10;;;;;;;2.63;1.20;;;13.10;99.90;;;13.31;nan;99704.22;5009924;28;20624;-66
2023/03/31 02:15:42;;;;;;;1.30;1.20;;;13.10;99.90;;;13.29;nan;99703.53;5024426;28;20840;-66
2023/03/31 02:18:12;;;;;;;6.37;1.10;;;13.10;99.90;;;13.31;nan;99698.97;5025357;28;20657;-66
2023/03/31 02:20:41;;;;;;;1.63;1.50;;;13.10;99.90;;;13.35;nan;99702.97;5024781;28;20633;-66
2023/03/31 02:23:11;;;;;;;0.60;0.60;;;13.10;99.90;;;13.37;nan;99690.53;5010620;28;20637;-66
2023/03/31 02:25:47;;;;;;;1.33;0.97;;;13.20;99.90;;;13.36;nan;99686.25;5026639;28;20715;-66
2023/03/31 02:28:20;;;;;;;1.90;0.80;;;13.10;99.90;;;13.34;nan;99682.97;5029504;28;20659;-66
2023/03/31 02:31:07;;;;;;;0.80;0.70;;;13.10;99.90;;;13.32;nan;99669.19;5005372;28;21187;-66
2023/03/31 02:33:34;;;;;;;2.10;1.07;;;13.10;99.90;;;13.33;nan;99664.78;5013997;28;20964;-66
2023/03/31 02:36:02;;;;;;;1.03;0.70;;;13.10;99.90;;;13.33;nan;99670.81;5005977;28;20633;-66
2023/03/31 02:38:37;;;;;;;3.73;1.10;;;13.10;99.90;;;13.33;nan;99673.44;5014331;28;20649;-66
2023/03/31 02:41:06;;;;;;;1.77;0.70;;;13.10;99.90;;;13.30;nan;99671.16;5013754;28;20633;-66
2023/03/31 02:43:33;;;;;;;1.03;0.63;;;13.10;99.90;;;13.33;nan;99667.41;5013062;28;20995;-66
2023/03/31 02:46:00;;;;;;;3.40;1.10;;;13.10;99.90;;;13.34;nan;99642.84;5012513;28;20739;-66
2023/03/31 02:48:36;;;;;;;0.60;0.60;;;13.10;99.90;;;13.35;nan;99642.72;5012934;28;20657;-65
2023/03/31 02:51:07;;;;;;;0.50;0.50;;;13.10;99.90;;;13.39;nan;99635.34;5012997;28;20632;-66
2023/03/31 02:54:04;;;;;;;1.13;0.70;;;13.20;99.90;;;13.41;nan;99634.22;5013701;28;20635;-66
2023/03/31 02:57:07;;;;;;;1.07;0.57;;;13.20;99.90;;;13.35;nan;99616.50;5012595;28;20699;-66
2023/03/31 03:00:09;;;;;;;1.07;0.67;;;13.20;99.90;;;13.31;nan;99604.66;5013461;28;20656;-66
2023/03/31 03:03:36;;;;;;;1.83;0.80;;;13.10;99.90;;;13.24;nan;99607.06;5009683;28;20625;-65
2023/03/31 03:06:36;;;;;;;0.90;0.67;;;13.10;99.90;;;13.20;nan;99594.44;5003925;28;21012;-66
2023/03/31 03:09:07;;;;;;;0.80;0.80;;;13.00;99.90;;;13.17;nan;99589.50;5012391;28;21297;-65
2023/03/31 03:11:55;;;;;;;1.03;0.80;;;13.00;99.90;;;13.12;nan;99573.41;5012406;28;21013;-66
2023/03/31 03:14:35;;;;;;;1.73;0.70;;;12.90;99.90;;;13.07;nan;99570.44;5013263;28;20995;-66
2023/03/31 03:17:09;;;;;;;0.57;0.57;;;12.90;99.90;;;13.01;nan;99568.41;5028812;28;20637;-66
2023/03/31 03:19:36;;;;;;;1.00;0.67;;;12.80;99.90;;;12.97;nan;99562.63;5012881;28;20647;-66
2023/03/31 03:22:03;;;;;;;1.53;0.80;;;12.80;99.90;;;12.90;nan;99553.75;5014081;28;20609;-66
2023/03/31 03:24:33;;;;;;;1.50;0.73;;;12.70;99.90;;;12.86;nan;99543.72;5013418;28;20665;-66
2023/03/31 03:27:00;;;;;;;0.80;0.80;;;12.60;99.90;;;12.87;nan;99521.78;5011436;28;20637;-66
2023/03/31 03:29:27;;;;;;;0.70;0.60;;;12.70;99.90;;;12.82;nan;99519.63;5012428;28;20660;-66
2023/03/31 03:31:54;;;;;;;1.53;0.67;;;12.60;99.90;;;12.82;nan;99509.16;5011864;28;20664;-66
2023/03/31 03:34:21;;;;;;;0.60;0.60;;;12.60;99.90;;;12.80;nan;99500.63;5013841;28;20625;-66
2023/03/31 03:36:48;;;;;;;0.80;0.60;;;12.60;99.90;;;12.78;nan;99489.50;5025975;28;21202;-66
2023/03/31 03:39:15;;;;;;;0.57;0.57;;;12.60;99.90;;;12.77;nan;99487.03;5011702;28;20644;-66
2023/03/31 03:41:42;;;;;;;0.93;0.60;;;12.60;99.90;;;12.75;nan;99481.97;5012728;28;20637;-66
2023/03/31 03:44:09;;;;;;;4.23;0.90;;;12.60;99.90;;;12.76;nan;99469.69;5009775;28;21334;-66
2023/03/31 03:46:36;;;;;;;5.07;0.83;;;12.60;99.90;;;12.76;nan;99459.22;5010391;28;20634;-66
2023/03/31 03:49:03;;;;;;;0.70;0.70;;;12.60;99.90;;;12.75;nan;99447.13;5012340;28;20692;-66
2023/03/31 03:51:30;;;;;;;3.10;0.80;;;12.60;99.90;;;12.75;nan;99436.66;5012423;28;20633;-65
2023/03/31 03:53:57;;;;;;;1.03;0.60;;;12.60;99.90;;;12.74;nan;99430.59;5013028;28;21104;-66
2023/03/31 03:56:25;;;;;;;0.90;0.60;;;12.60;99.90;;;12.74;nan;99429.75;5013039;28;21107;-66
2023/03/31 03:58:52;;;;;;;1.87;0.73;;;12.60;99.90;;;12.73;nan;99433.38;5012347;28;20661;-65
2023/03/31 04:01:19;;;;;;;3.93;0.70;;;12.60;99.90;;;12.73;nan;99443.81;5011540;28;20637;-66
2023/03/31 04:03:46;;;;;;;2.93;1.00;;;12.60;99.90;;;12.70;nan;99455.41;5012875;28;21005;-66
2023/03/31 04:06:13;;;;;;;2.63;0.80;;;12.50;99.90;;;12.70;nan;99457.22;5012304;28;20633;-66
2023/03/31 04:08:40;;;;;;;0.70;0.70;;;12.50;99.90;;;12.73;nan;99459.53;5012958;28;20641;-65
2023/03/31 04:11:16;;;;;;;1.10;0.67;;;12.60;99.90;;;12.68;nan;99444.28;5005259;28;20638;-65
2023/03/31 04:13:45;;;;;;;0.77;0.57;;;12.50;99.90;;;12.64;nan;99445.56;5011492;28;20637;-66
2023/03/31 04:16:13;;;;;;;0.60;0.60;;;12.50;99.90;;;12.69;nan;99450.34;5011381;28;21002;-65
2023/03/31 04:18:41;;;;;;;2.00;0.63;;;12.50;99.90;;;12.71;nan;99435.31;5011486;28;20696;-66
2023/03/31 04:21:11;;;;;;;0.93;0.93;;;12.50;99.90;;;12.68;nan;99428.59;5011903;28;20632;-66
2023/03/31 04:23:45;;;;;;;1.30;0.70;;;12.50;99.90;;;12.66;nan;99406.97;4993688;28;20631;-66
2023/03/31 04:26:13;;;;;;;0.60;0.60;;;12.50;99.90;;;12.64;nan;99408.09;4992508;28;21202;-66
2023/03/31 04:28:41;;;;;;;0.50;0.50;;;12.50;99.90;;;12.61;nan;99397.94;5000307;28;20695;-66
2023/03/31 04:31:14;;;;;;;2.30;0.90;;;12.50;99.90;;;12.59;nan;99400.69;5010916;28;20626;-66
2023/03/31 04:33:44;;;;;;;0.60;0.60;;;12.50;99.90;;;12.53;nan;99395.25;5026154;28;20633;-66
2023/03/31 04:36:17;;;;;;;2.30;0.90;;;12.40;99.90;;;12.55;nan;99406.38;5011783;28;20640;-65
2023/03/31 04:38:49;;;;;;;0.80;0.63;;;12.30;99.90;;;12.52;nan;99419.78;5011671;28;21064;-65
2023/03/31 04:41:16;;;;;;;0.60;0.60;;;12.30;99.90;;;12.50;nan;99406.84;5010562;28;20667;-67
2023/03/31 04:43:44;;;;;;;1.33;1.00;;;12.30;99.90;;;12.43;nan;99404.03;5012214;28;20638;-65
2023/03/31 04:46:11;;;;;;;0.50;0.50;;;12.20;99.90;;;12.44;nan;99410.91;5010877;28;21253;-65
2023/03/31 04:48:38;;;;;;;1.93;0.90;;;12.20;99.90;;;12.43;nan;99398.81;5009881;28;20668;-65
2023/03/31 04:51:05;;;;;;;0.50;0.50;;;12.20;99.90;;;12.38;nan;99403.66;5011747;28;20629;-67
2023/03/31 04:53:32;;;;;;;3.23;0.77;;;12.20;99.90;;;12.39;nan;99394.03;5010919;28;20641;-66
2023/03/31 04:56:00;;;;;;;1.90;0.80;;;12.20;99.90;;;12.38;nan;99387.97;5026581;28;20640;-68
2023/03/31 04:58:27;;;;;;;1.87;1.03;;;12.20;99.90;;;12.34;nan;99384.00;5010514;28;21010;-67
2023/03/31 05:00:54;;;;;;;1.50;0.77;;;12.20;99.90;;;12.30;nan;99398.38;5005967;28;20714;-68
2023/03/31 05:03:21;;;;;;;5.40;1.03;;;12.10;99.90;;;12.24;nan;99395.53;5009803;28;21327;-65
2023/03/31 05:05:48;;;;;;;1.30;1.23;;;12.10;99.90;;;12.21;nan;99391.41;5011419;28;20653;-64
2023/03/31 05:08:15;;;;;;;0.97;0.60;;;12.00;99.90;;;12.20;nan;99384.53;5012436;28;20637;-67
2023/03/31 05:10:42;;;;;;;0.53;0.50;;;12.00;99.90;;;12.13;nan;99396.59;5006010;28;20640;-67
2023/03/31 05:13:09;;;;;;;0.30;0.30;;;12.00;99.90;;;12.11;nan;99382.00;5011420;28;20628;-67
2023/03/31 05:15:38;;;;;;;1.50;1.07;;;11.90;99.90;;;12.09;nan;99382.16;5010733;28;20633;-67
2023/03/31 05:18:06;;;;;;;0.77;0.73;;;11.90;99.90;;;12.08;nan;99375.28;5009305;28;21013;-66
2023/03/31 05:20:34;;;;;;;1.47;1.00;;;11.90;99.90;;;12.09;nan;99366.47;5012080;28;21171;-67
2023/03/31 05:23:00;;;;;;;0.53;0.50;;;11.90;99.90;;;12.06;nan;99369.38;5010988;28;20613;-67
2023/03/31 05:25:31;;;;;;;1.77;0.90;;;11.90;99.90;;;11.99;nan;99363.09;5010988;28;20665;-67
2023/03/31 05:27:59;;;;;;;0.60;0.60;;;11.80;99.90;;;11.92;nan;99346.41;5011374;28;20648;-67
2023/03/31 05:30:27;;;;;;;1.00;1.00;;;11.70;99.90;;;11.93;nan;99340.19;5011922;28;21260;-67
2023/03/31 05:32:55;;;;;;;0.40;0.40;;;11.70;99.90;;;11.90;nan;99331.84;5012273;28;20606;-64
2023/03/31 05:35:22;;;;;;;1.30;0.90;;;11.70;99.90;;;11.87;nan;99321.66;5011310;28;20634;-67
2023/03/31 05:37:49;;;;;;;1.30;1.20;;;11.70;99.90;;;11.84;nan;99320.16;5009097;28;20629;-65
2023/03/31 05:40:16;;;;;;;1.13;1.13;;;11.70;99.90;;;11.80;nan;99324.06;5010695;28;20722;-65
2023/03/31 05:42:43;;;;;;;2.03;0.90;;;11.60;99.90;;;11.74;nan;99319.44;5010736;28;20706;-65
2023/03/31 05:45:11;;;;;;;0.67;0.67;;;11.60;99.90;;;11.73;nan;99312.56;5011004;28;21037;-66
2023/03/31 05:47:38;;;;;;;1.03;0.63;;;11.60;99.90;;;11.70;nan;99315.47;5008549;28;20633;-64
2023/03/31 05:50:07;;;;;;;1.00;0.90;;;11.50;99.90;;;11.71;nan;99311.06;5009999;28;20641;-68
2023/03/31 05:52:35;;;;;;;1.43;1.07;;;11.50;99.90;;;11.68;nan;99307.78;5005517;28;20614;-67
2023/03/31 05:55:03;;;;;;;0.57;0.57;;;11.50;99.90;;;11.69;nan;99296.34;5007223;28;20999;-67
2023/03/31 05:57:30;;;;;;;0.97;0.40;;;11.50;99.90;;;11.61;nan;99285.81;5011554;28;20634;-65
2023/03/31 05:59:57;;;;;;;4.23;0.90;;;11.50;99.90;;;11.61;nan;99264.06;5007978;28;20665;-65
2023/03/31 06:02:24;;;;;;;2.27;1.07;;;11.50;99.90;;;11.67;nan;99240.81;5010543;28;20634;-65
2023/03/31 06:04:51;;;;;;;1.57;1.37;;;11.50;99.90;;;11.63;nan;99225.56;5006428;28;20658;-67
2023/03/31 06:07:18;;;;;;;2.20;1.53;;;11.50;99.90;;;11.64;nan;99237.66;5005719;28;20637;-67
2023/03/31 06:09:45;;;;;;;1.43;0.80;;;11.50;99.90;;;11.61;nan;99237.97;5003372;28;20645;-67
2023/03/31 06:12:12;;;;;;;1.23;1.10;;;11.50;99.90;;;11.62;nan;99234.38;5022699;28;21198;-65
2023/03/31 06:14:39;;;;;;;1.00;1.00;;;11.50;99.90;;;11.59;nan;99232.88;5010924;28;20629;-67
2023/03/31 06:17:06;;;;;;;2.20;1.47;;;11.40;99.90;;;11.63;nan;99215.13;5011344;28;20659;-65
2023/03/31 06:19:33;;;;;;;2.33;1.70;;;11.50;99.90;;;11.65;nan;99214.00;5010398;28;20661;-65
2023/03/31 06:22:01;;;;;;;2.37;2.17;;;11.50;99.90;;;11.63;nan;99197.66;5002945;28;20665;-65
2023/03/31 06:24:27;;;;;;;5.00;1.87;;;11.50;99.90;;;11.69;nan;99186.63;5010300;28;21016;-65
2023/03/31 06:26:54;;;;;;;0.70;0.70;;;11.60;99.90;;;11.69;nan;99188.44;5004825;28;20637;-64
2023/03/31 06:29:21;;;;;;;1.53;1.10;;;11.60;99.90;;;11.61;nan;99183.09;5005910;28;20690;-65
2023/03/31 06:31:48;;;;;;;1.07;1.03;;;11.50;99.90;;;11.65;nan;99176.59;5006971;28;20621;-65
2023/03/31 06:34:15;;;;;;;1.30;1.07;;;11.50;99.90;;;11.57;nan;99193.03;5009243;28;21223;-63
2023/03/31 06:36:44;;;;;;;2.77;1.70;;;11.50;99.90;;;11.49;nan;99181.72;5009930;28;21060;-65
2023/03/31 06:39:11;;;;;;;6.10;1.60;;;11.40;99.90;;;11.42;nan;99191.09;5006788;28;20661;-65
2023/03/31 06:41:38;;;;;;;0.97;0.87;;;11.30;99.90;;;11.39;nan;99187.00;5009442;28;21292;-65
2023/03/31 06:44:05;;;;;;;1.57;1.27;;;11.30;99.90;;;11.40;nan;99174.78;5009743;28;20694;-65
2023/03/31 06:46:32;;;;;;;1.13;1.03;;;11.20;99.90;;;11.40;nan;99183.44;5010261;28;20696;-65
2023/03/31 06:48:59;;;;;;;4.07;1.90;;;11.20;99.90;;;11.43;nan;99180.53;5006839;28;20657;-65
2023/03/31 06:51:26;;;;;;;1.37;1.27;;;11.30;99.90;;;11.45;nan;99185.59;5009843;28;20699;-67
2023/03/31 06:53:53;;;;;;;1.40;1.10;;;11.30;99.90;;;11.53;nan;99175.19;5009067;28;21037;-65
2023/03/31 06:56:20;;;;;;;7.43;2.20;;;11.40;99.90;;;11.57;nan;99177.38;5008441;28;20633;-65
2023/03/31 06:58:47;;;;;;;5.37;1.00;;;11.40;99.90;;;11.60;nan;99184.91;5003076;28;21076;-64
2023/03/31 07:01:14;;;;;;;3.87;1.80;;;11.40;99.90;;;11.58;nan;99184.22;5018434;28;20630;-65
2023/03/31 07:03:41;;;;;;;1.13;1.13;;;11.40;99.90;;;11.60;nan;99197.97;5009255;28;20618;-65
2023/03/31 07:06:08;;;;;;;0.80;0.80;;;11.50;99.90;;;11.56;nan;99191.38;5009058;28;20677;-64
2023/03/31 07:08:35;;;;;;;1.87;1.77;;;11.40;99.90;;;11.57;nan;99187.00;5007954;28;20707;-68
2023/03/31 07:11:02;;;;;;;1.20;1.10;;;11.40;99.90;;;11.53;nan;99181.25;5009176;28;21007;-65
2023/03/31 07:13:30;;;;;;;3.03;1.60;;;11.40;99.90;;;11.54;nan;99169.81;5008544;28;20633;-65
2023/03/31 07:15:57;;;;;;;3.00;1.90;;;11.40;99.90;;;11.62;nan;99182.97;4999423;28;20640;-66
2023/03/31 07:18:31;;;;;;;3.63;1.00;;;11.40;99.90;;;11.52;nan;99189.25;5009393;28;20673;-65
2023/03/31 07:21:00;;;;;;;2.33;2.13;;;11.40;99.90;;;11.58;nan;99188.66;5009185;28;20714;-65
2023/03/31 07:23:27;;;;;;;2.57;2.37;;;11.40;99.90;;;11.60;nan;99178.88;5012147;28;20637;-65
2023/03/31 07:25:54;;;;;;;1.37;1.27;;;11.40;99.90;;;11.70;nan;99174.38;5012733;28;21242;-65
2023/03/31 07:28:21;;;;;;;2.43;2.30;;;11.50;99.90;;;11.81;nan;99173.31;5038184;23;20710;-66
2023/03/31 07:30:48;;;;;;;7.00;1.43;;;11.60;99.90;;;11.92;nan;99170.47;4971051;28;20643;-67
2023/03/31 07:33:15;;;;;;;2.40;2.20;;;11.80;99.90;;;12.14;nan;99170.75;4974452;28;20642;-67
2023/03/31 07:35:42;;;;;;;1.50;1.40;;;12.00;99.90;;;12.75;nan;99175.75;4974197;28;20635;-67
2023/03/31 07:38:11;;;;;;;3.93;2.17;;;12.40;99.90;;;13.70;nan;99156.88;4972805;28;20670;-67
2023/03/31 07:40:40;;;;;;;2.30;2.10;;;13.30;99.90;;;14.32;nan;99147.44;4973683;28;20646;-67
2023/03/31 07:43:07;;;;;;;4.87;3.80;;;14.10;99.90;;;14.94;nan;99148.28;4974537;28;20653;-68
2023/03/31 07:45:34;;;;;;;3.47;3.17;;;14.60;99.90;;;15.49;nan;99139.22;4973817;28;20730;-67
2023/03/31 07:48:01;;;;;;;3.30;3.10;;;15.20;99.90;;;16.30;nan;99147.09;4972493;28;20652;-69
2023/03/31 07:50:29;;;;;;;2.63;1.83;;;16.00;99.90;;;16.99;nan;99164.16;4968480;28;20627;-67
2023/03/31 07:52:56;;;;;;;4.17;3.60;;;16.80;99.90;;;17.32;nan;99177.69;4973368;28;20631;-67
2023/03/31 07:55:25;;;;;;;9.30;2.63;;;17.20;99.90;;;17.28;nan;99175.59;4972775;28;21247;-68
2023/03/31 07:57:52;;;;;;;3.17;2.87;;;17.30;99.90;;;16.83;nan;99176.72;4953869;28;20628;-68
2023/03/31 08:00:20;;;;;;;3.00;2.53;;;17.00;99.90;;;15.94;nan;99176.91;4954308;28;20644;-67
2023/03/31 08:02:47;;;;;;;4.30;2.27;;;16.20;99.90;;;15.33;nan;99176.06;4955050;28;20624;-66
2023/03/31 08:05:17;;;;;;;3.03;2.73;;;15.50;99.90;;;14.87;nan;99184.91;4959168;28;20693;-66
2023/03/31 08:07:47;;;;;;;4.93;3.23;;;15.00;99.90;;;14.45;nan;99182.66;4970617;28;20619;-66
2023/03/31 08:10:23;;;;;;;5.77;3.80;;;14.50;99.90;;;14.18;nan;99183.03;4972844;28;20670;-69
2023/03/31 08:12:51;;;;;;;4.47;3.10;;;14.10;99.90;;;13.93;nan;99205.84;4972351;28;20642;-66
2023/03/31 08:15:18;;;;;;;2.23;2.03;;;13.90;99.90;;;13.78;nan;99196.19;4980229;28;20646;-64
2023/03/31 08:17:45;;;;;;;4.43;3.20;;;13.70;99.90;;;13.67;nan;99210.44;4971753;28;20627;-66
2023/03/31 08:20:12;;;;;;;5.53;2.73;;;13.60;99.90;;;13.56;nan;99208.19;4967826;28;20666;-68
2023/03/31 08:22:40;;;;;;;6.87;2.90;;;13.40;99.90;;;13.54;nan;99210.16;4970257;28;21010;-67
2023/03/31 08:25:08;;;;;;;3.93;2.80;;;13.40;99.90;;;13.57;nan;99198.50;4972532;28;20632;-68
2023/03/31 08:27:38;;;;;;;5.07;3.13;;;13.40;99.90;;;13.55;nan;99206.53;4957073;28;21218;-67
2023/03/31 08:30:09;;;;;;;3.20;2.37;;;13.40;99.90;;;13.57;nan;99201.13;4951243;28;20675;-67
2023/03/31 08:32:37;;;;;;;2.10;2.00;;;13.40;99.90;;;13.78;nan;99198.81;4971959;28;20631;-67
2023/03/31 08:35:05;;;;;;;2.03;1.80;;;13.60;99.90;;;14.01;nan;99192.72;4969500;28;21197;-67
2023/03/31 08:37:32;;;;;;;2.60;2.00;;;13.90;99.90;;;14.20;nan;99185.50;4968277;28;20639;-66
2023/03/31 08:39:59;;;;;;;3.03;2.23;;;14.00;99.90;;;14.31;nan;99185.97;4971484;28;20709;-67
2023/03/31 08:42:41;;;;;;;4.30;1.90;;;14.20;99.90;;;14.35;nan;99176.75;4971410;28;20639;-66
2023/03/31 08:45:32;;;;;;;4.87;2.27;;;14.20;99.90;;;14.35;nan;99181.22;4954908;28;20587;-66
2023/03/31 08:48:07;;;;;;;3.40;2.50;;;14.20;99.90;;;14.28;nan;99186.28;4967623;28;20650;-69
2023/03/31 08:50:42;;;;;;;6.30;1.70;;;14.10;99.90;;;14.18;nan;99175.19;4967504;28;20615;-67
2023/03/31 08:53:28;;;;;;;5.80;1.53;;;14.10;99.90;;;13.92;nan;99170.16;4986467;28;20966;-69
2023/03/31 08:55:57;;;;;;;2.07;1.97;;;13.80;99.90;;;13.76;nan;99182.44;4986810;28;20623;-68
2023/03/31 08:58:46;;;;;;;3.10;2.60;;;13.60;99.90;;;13.53;nan;99171.81;4986228;28;21025;-66
2023/03/31 09:01:31;;;;;;;3.00;2.33;;;13.50;99.90;;;13.42;nan;99172.13;4970401;28;20640;-68
2023/03/31 09:05:10;;;;;;;2.27;2.07;;;13.30;99.90;;;13.33;nan;99160.00;4972015;28;21181;-68
2023/03/31 09:08:18;;;;;;;2.20;1.80;;;13.20;99.90;;;13.32;nan;99165.41;4987358;28;20670;-67
2023/03/31 09:10:55;;;;;;;2.53;2.33;;;13.20;99.90;;;13.34;nan;99177.38;4951504;28;21270;-67
2023/03/31 09:13:51;;;;;;;4.20;2.83;;;13.20;99.90;;;13.33;nan;99201.91;4988308;28;21124;-66
2023/03/31 09:16:26;;;;;;;4.10;1.80;;;13.20;99.90;;;13.19;nan;99210.41;4969228;28;20681;-66
2023/03/31 09:19:01;;;;;;;3.63;0.90;;;13.10;99.90;;;12.95;nan;99231.25;4980257;28;20681;-68
2023/03/31 09:21:33;;;;;;;0.53;0.53;;;12.90;99.90;;;12.70;nan;99219.06;4967021;28;20639;-67
2023/03/31 09:24:23;;;;;;;1.47;0.67;;;12.60;99.90;;;12.38;nan;99204.88;4971432;28;21145;-67
2023/03/31 09:26:53;;;;;;;1.03;0.70;;;12.40;99.90;;;12.16;nan;99213.25;4967521;28;20725;-66
2023/03/31 09:29:33;;;;;;;0.87;0.87;;;12.10;99.90;;;11.98;nan;99215.09;4963351;28;21046;-66
2023/03/31 09:32:13;;;;;;;0.40;0.40;;;11.90;99.90;;;11.81;nan;99221.19;4970936;28;20627;-67
2023/03/31 09:34:40;;;;;;;1.63;0.57;;;11.70;99.90;;;11.68;nan;99223.38;4970130;28;20627;-65
2023/03/31 09:37:10;;;;;;;4.27;0.60;;;11.60;99.90;;;11.64;nan;99219.38;4971544;28;20639;-67
2023/03/31 09:39:39;;;;;;;1.03;0.80;;;11.50;99.90;;;11.61;nan;99193.53;4985197;28;20663;-66
2023/03/31 09:42:10;;;;;;;1.40;0.40;;;11.50;99.90;;;11.59;nan;99180.66;4987648;28;20638;-67
2023/03/31 09:44:41;;;;;;;0.43;0.43;;;11.50;99.90;;;11.58;nan;99180.81;4963713;28;20636;-67
2023/03/31 09:47:37;;;;;;;0.50;0.50;;;11.50;99.90;;;11.53;nan;99157.75;4936579;28;21039;-67
2023/03/31 09:50:06;;;;;;;0.87;0.80;;;11.40;99.90;;;11.57;nan;99153.03;4984343;28;20659;-66
2023/03/31 09:52:43;;;;;;;2.20;0.80;;;11.40;99.90;;;11.63;nan;99129.72;4970574;28;20669;-67
2023/03/31 09:55:25;;;;;;;0.57;0.57;;;11.50;99.90;;;11.71;nan;99131.63;4956845;28;21181;-68
2023/03/31 09:58:14;;;;;;;1.50;0.87;;;11.60;99.90;;;11.79;nan;99134.28;4968783;28;20623;-67
2023/03/31 10:00:56;;;;;;;1.60;0.90;;;11.70;99.90;;;11.85;nan;99144.13;4985732;28;20603;-67
2023/03/31 10:03:24;;;;;;;0.30;0.30;;;11.70;99.90;;;11.88;nan;99150.84;4953250;28;20592;-67
2023/03/31 10:05:54;;;;;;;0.87;0.87;;;11.70;99.90;;;11.89;nan;99145.44;4952386;28;20655;-68
2023/03/31 10:08:30;;;;;;;1.53;0.60;;;11.80;99.90;;;11.85;nan;99161.59;4950899;28;20678;-66
2023/03/31 10:11:03;;;;;;;1.00;0.70;;;11.70;99.90;;;11.82;nan;99133.16;4957587;28;20638;-68
2023/03/31 10:14:03;;;;;;;2.73;0.83;;;11.70;99.90;;;11.96;nan;99128.19;4972108;28;20627;-67
2023/03/31 10:16:33;;;;;;;0.90;0.90;;;11.80;99.90;;;12.56;nan;99130.72;4971612;28;21193;-67
2023/03/31 10:19:27;;;;;;;4.33;0.80;;;12.30;99.90;;;14.10;nan;99116.69;4968398;28;21240;-68
2023/03/31 10:22:03;;;;;;;1.00;0.97;;;13.80;99.90;;;14.76;nan;99120.50;4970667;28;20623;-68
2023/03/31 10:24:40;;;;;;;1.07;0.67;;;14.60;99.90;;;14.85;nan;99108.13;4970043;28;20634;-68
2023/03/31 10:27:39;;;;;;;5.40;1.33;;;14.80;99.90;;;14.82;nan;99105.88;4970760;28;20639;-66
2023/03/31 10:30:11;;;;;;;4.97;1.33;;;14.70;99.90;;;14.77;nan;99087.19;4964203;28;20691;-67
2023/03/31 10:32:42;;;;;;;3.47;1.17;;;14.70;99.90;;;14.85;nan;99075.78;4964837;28;21070;-68
2023/03/31 10:35:31;;;;;;;3.07;1.47;;;14.70;99.90;;;14.96;nan;99068.34;4985123;28;20627;-68
2023/03/31 10:38:12;;;;;;;1.50;0.93;;;14.90;99.90;;;15.19;nan;99079.63;4969626;28;20634;-67
2023/03/31 10:40:48;;;;;;;2.70;1.17;;;15.00;99.90;;;15.37;nan;99071.44;4985208;28;20623;-67
2023/03/31 10:43:27;;;;;;;2.60;1.30;;;15.20;99.90;;;15.50;nan;99064.59;4985133;28;20643;-69
2023/03/31 10:45:59;;;;;;;1.77;0.70;;;15.30;99.90;;;15.50;nan;99061.97;4984313;28;21100;-67
2023/03/31 10:48:37;;;;;;;2.77;1.50;;;15.40;99.90;;;15.57;nan;99058.66;4970444;28;20643;-67
2023/03/31 10:51:24;;;;;;;2.30;1.40;;;15.40;99.90;;;15.69;nan;99065.91;4987688;28;20623;-68
2023/03/31 10:53:54;;;;;;;3.17;1.10;;;15.50;99.90;;;15.82;nan;99075.81;4972862;28;20591;-67
2023/03/31 10:56:42;;;;;;;1.93;1.20;;;15.70;99.90;;;15.97;nan;99079.25;4987040;28;21013;-67
2023/03/31 10:59:40;;;;;;;2.13;1.07;;;15.80;99.90;;;15.78;nan;99071.91;4971566;28;20671;-67